Terminal Aerodrome Forecast
Issued by NWS

Home | Current Version | Previous Version | Text Only | Print | Product List | Glossary On
Versions: 1 2 3 4 5 6 7 8 9 10 11 12 13 14 15 16 17 18 19 20 21 22 23 24 25 26 27 28 29 30 31 32 33 34
000
FTUS45 KBOU 300417 AAA
TAFBJC
TAF AMD
KBJC 300417Z 3004/3024 23007KT P6SM SCT100
     FM301500 VRB05KT P6SM FEW090 SCT150 BKN200
     FM302000 30012KT P6SM SCT070 BKN120 PROB30 3020/3024 VRB20G30KT
      -TSRA BKN060CB=

USA.gov is the U.S. government's official web portal to all federal, state and local government web resources and services.